createdAt,value
2023-01-12T00:00:26.789Z,9.27
2023-01-12T00:01:26.619Z,9.31
2023-01-12T00:02:26.642Z,9.12
2023-01-12T00:03:26.619Z,9.24
2023-01-12T00:04:26.641Z,9.16
2023-01-12T00:05:26.591Z,9.35
2023-01-12T00:06:26.588Z,9.32
2023-01-12T00:07:26.539Z,9.39
2023-01-12T00:08:26.542Z,9.49
2023-01-12T00:09:26.509Z,9.40
2023-01-12T00:10:26.536Z,9.32
2023-01-12T00:11:26.494Z,9.45
2023-01-12T00:12:26.479Z,9.39
2023-01-12T00:13:26.470Z,9.34
2023-01-12T00:14:26.473Z,9.45
2023-01-12T00:15:26.442Z,9.58
2023-01-12T00:16:26.564Z,9.39
2023-01-12T00:17:26.433Z,9.34
2023-01-12T00:18:26.409Z,9.57
2023-01-12T00:19:26.394Z,9.45
2023-01-12T00:20:26.404Z,9.61
2023-01-12T00:21:26.376Z,9.61
2023-01-12T00:22:26.411Z,9.63
2023-01-12T00:23:26.350Z,9.52
2023-01-12T00:24:26.348Z,9.56
2023-01-12T00:25:26.341Z,9.58
2023-01-12T00:26:26.329Z,9.60
2023-01-12T00:27:26.315Z,9.63
2023-01-12T00:28:26.318Z,9.58
2023-01-12T00:29:26.312Z,9.71
2023-01-12T00:30:26.282Z,9.79
2023-01-12T00:31:26.287Z,9.78
2023-01-12T00:32:26.251Z,9.60
2023-01-12T00:33:26.266Z,9.73
2023-01-12T00:34:28.630Z,9.85
2023-01-12T00:35:26.216Z,9.75
2023-01-12T00:36:26.238Z,9.66
2023-01-12T00:37:26.188Z,9.56
2023-01-12T00:38:26.184Z,9.60
2023-01-12T00:39:26.213Z,9.64
2023-01-12T00:40:26.204Z,9.76
2023-01-12T00:41:26.166Z,9.73
2023-01-12T00:42:26.138Z,9.64
2023-01-12T00:43:26.128Z,9.66
2023-01-12T00:44:26.120Z,9.75
2023-01-12T00:45:26.124Z,9.89
2023-01-12T00:46:26.126Z,9.63
2023-01-12T00:47:26.131Z,9.64
2023-01-12T00:48:26.075Z,9.75
2023-01-12T00:49:26.056Z,9.79
2023-01-12T00:50:26.071Z,9.94
2023-01-12T00:51:26.067Z,9.83
2023-01-12T00:52:30.842Z,9.76
2023-01-12T00:53:27.028Z,9.97
2023-01-12T00:54:26.010Z,9.96
2023-01-12T00:55:26.034Z,10.10
2023-01-12T00:56:25.977Z,9.85
2023-01-12T00:57:25.981Z,9.76
2023-01-12T00:58:25.945Z,9.82
2023-01-12T00:59:25.945Z,9.76
2023-01-12T01:00:25.928Z,9.93
2023-01-12T01:01:25.994Z,10.01
2023-01-12T01:02:26.047Z,10.03
2023-01-12T01:03:25.909Z,9.78
2023-01-12T01:04:25.885Z,9.86
2023-01-12T01:05:25.894Z,9.79
2023-01-12T01:06:25.858Z,9.73
2023-01-12T01:07:25.919Z,9.79
2023-01-12T01:08:25.903Z,10.10
2023-01-12T01:09:25.876Z,10.03
2023-01-12T01:10:25.840Z,10.07
2023-01-12T01:11:25.796Z,10.17
2023-01-12T01:12:25.787Z,10.06
2023-01-12T01:13:25.816Z,10.09
2023-01-12T01:14:25.759Z,9.99
2023-01-12T01:15:25.776Z,10.06
2023-01-12T01:16:25.744Z,9.99
2023-01-12T01:17:25.736Z,9.85
2023-01-12T01:18:25.725Z,10.01
2023-01-12T01:19:25.737Z,10.04
2023-01-12T01:20:25.717Z,10.09
2023-01-12T01:21:25.687Z,10.18
2023-01-12T01:22:25.679Z,10.19
2023-01-12T01:23:25.667Z,10.18
2023-01-12T01:24:25.693Z,10.10
2023-01-12T01:25:25.668Z,10.18
2023-01-12T01:26:25.640Z,10.09
2023-01-12T01:27:25.652Z,10.06
2023-01-12T01:28:25.639Z,10.26
2023-01-12T01:29:25.608Z,10.33
2023-01-12T01:30:25.585Z,10.18
2023-01-12T01:31:25.687Z,10.10
2023-01-12T01:32:25.567Z,10.03
2023-01-12T01:33:25.552Z,10.12
2023-01-12T01:34:25.549Z,10.07
2023-01-12T01:35:25.519Z,9.81
2023-01-12T01:36:25.510Z,10.04
2023-01-12T01:37:25.562Z,10.04
2023-01-12T01:38:25.502Z,10.07
2023-01-12T01:39:25.490Z,10.09
2023-01-12T01:40:25.483Z,9.86
2023-01-12T01:41:25.460Z,9.97
2023-01-12T01:42:25.457Z,10.18
2023-01-12T01:43:25.460Z,10.07
2023-01-12T01:44:25.422Z,9.99
2023-01-12T01:45:25.422Z,9.88
2023-01-12T01:46:25.484Z,10.14
2023-01-12T01:47:25.391Z,10.07
2023-01-12T01:48:25.380Z,10.24
2023-01-12T01:49:25.404Z,10.09
2023-01-12T01:50:25.351Z,10.21
2023-01-12T01:51:25.349Z,10.17
2023-01-12T01:52:25.342Z,10.21
2023-01-12T01:53:25.321Z,10.19
2023-01-12T01:54:25.315Z,10.10
2023-01-12T01:55:25.348Z,10.15
2023-01-12T01:56:25.301Z,10.15
2023-01-12T01:57:25.287Z,10.01
2023-01-12T01:58:25.261Z,10.21
2023-01-12T01:59:25.253Z,10.17
2023-01-12T02:00:25.313Z,9.93
2023-01-12T02:01:25.347Z,10.09
2023-01-12T02:02:25.264Z,9.91
2023-01-12T02:03:25.202Z,10.10
2023-01-12T02:04:25.220Z,9.99
2023-01-12T02:05:25.183Z,9.99
2023-01-12T02:06:25.232Z,9.73
2023-01-12T02:07:25.168Z,9.82
2023-01-12T02:08:25.187Z,9.86
2023-01-12T02:09:25.141Z,9.99
2023-01-12T02:10:25.126Z,9.81
2023-01-12T02:11:25.139Z,9.89
2023-01-12T02:12:25.099Z,9.75
2023-01-12T02:13:25.106Z,9.75
2023-01-12T02:14:25.083Z,9.81
2023-01-12T02:15:25.106Z,9.89
2023-01-12T02:16:25.088Z,9.82
2023-01-12T02:17:25.090Z,9.66
2023-01-12T02:18:25.038Z,9.75
2023-01-12T02:19:25.015Z,9.83
2023-01-12T02:20:25.036Z,9.75
2023-01-12T02:21:24.997Z,9.82
2023-01-12T02:22:25.009Z,9.83
2023-01-12T02:23:25.005Z,9.78
2023-01-12T02:24:24.972Z,9.78
2023-01-12T02:25:24.959Z,9.76
2023-01-12T02:26:24.936Z,9.76
2023-01-12T02:27:24.934Z,9.83
2023-01-12T02:28:24.918Z,9.66
2023-01-12T02:29:24.961Z,9.83
2023-01-12T02:30:24.892Z,9.82
2023-01-12T02:31:24.899Z,9.91
2023-01-12T02:32:24.871Z,9.85
2023-01-12T02:33:24.869Z,9.99
2023-01-12T02:34:24.845Z,9.68
2023-01-12T02:35:24.874Z,9.78
2023-01-12T02:36:24.896Z,9.82
2023-01-12T02:37:24.807Z,9.67
2023-01-12T02:38:24.818Z,9.82
2023-01-12T02:39:24.805Z,9.57
2023-01-12T02:40:24.806Z,9.81
2023-01-12T02:41:24.794Z,9.76
2023-01-12T02:42:24.747Z,9.88
2023-01-12T02:43:24.749Z,9.78
2023-01-12T02:44:24.758Z,9.86
2023-01-12T02:45:24.718Z,9.78
2023-01-12T02:46:24.742Z,9.73
2023-01-12T02:47:24.899Z,9.93
2023-01-12T02:48:24.688Z,9.88
2023-01-12T02:49:24.695Z,9.82
2023-01-12T02:50:24.660Z,9.97
2023-01-12T02:51:24.674Z,10.00
2023-01-12T02:52:24.690Z,9.89
2023-01-12T02:53:24.665Z,9.85
2023-01-12T02:54:24.619Z,9.66
2023-01-12T02:55:24.613Z,9.75
2023-01-12T02:56:24.590Z,10.00
2023-01-12T02:57:24.593Z,10.14
2023-01-12T02:58:24.608Z,10.07
2023-01-12T02:59:24.558Z,10.03
2023-01-12T03:00:24.655Z,10.03
2023-01-12T03:01:24.702Z,10.14
2023-01-12T03:02:24.537Z,10.01
2023-01-12T03:03:24.636Z,9.85
2023-01-12T03:04:24.525Z,9.66
2023-01-12T03:05:24.563Z,9.91
2023-01-12T03:06:24.528Z,9.83
2023-01-12T03:07:24.461Z,9.73
2023-01-12T03:08:24.529Z,9.81
2023-01-12T03:09:24.535Z,9.81
2023-01-12T03:10:24.433Z,9.97
2023-01-12T03:11:24.434Z,9.94
2023-01-12T03:12:24.411Z,9.89
2023-01-12T03:13:24.403Z,9.96
2023-01-12T03:14:24.381Z,9.97
2023-01-12T03:15:24.412Z,9.99
2023-01-12T03:16:24.396Z,10.00
2023-01-12T03:17:24.374Z,9.81
2023-01-12T03:18:24.355Z,9.97
2023-01-12T03:19:24.330Z,9.91
2023-01-12T03:20:24.332Z,10.03
2023-01-12T03:21:24.326Z,10.01
2023-01-12T03:22:24.293Z,10.03
2023-01-12T03:23:24.283Z,9.86
2023-01-12T03:24:24.264Z,9.97
2023-01-12T03:25:24.275Z,10.04
2023-01-12T03:26:24.315Z,10.01
2023-01-12T03:27:24.258Z,10.15
2023-01-12T03:28:24.234Z,9.99
2023-01-12T03:29:24.219Z,10.07
2023-01-12T03:30:24.243Z,10.14
2023-01-12T03:31:24.231Z,10.09
2023-01-12T03:32:24.217Z,10.14
2023-01-12T03:33:24.168Z,10.24
2023-01-12T03:34:24.157Z,9.93
2023-01-12T03:35:24.149Z,9.99
2023-01-12T03:36:24.169Z,9.89
2023-01-12T03:37:24.372Z,9.96
2023-01-12T03:38:24.148Z,9.86
2023-01-12T03:39:24.121Z,9.88
2023-01-12T03:40:24.084Z,10.04
2023-01-12T03:41:24.074Z,10.17
2023-01-12T03:42:24.090Z,10.10
2023-01-12T03:43:24.076Z,9.97
2023-01-12T03:44:24.056Z,10.17
2023-01-12T03:45:24.028Z,10.14
2023-01-12T03:46:24.076Z,10.06
2023-01-12T03:47:24.006Z,10.14
2023-01-12T03:48:23.996Z,10.21
2023-01-12T03:49:24.019Z,10.07
2023-01-12T03:50:23.979Z,10.12
2023-01-12T03:51:23.968Z,10.32
2023-01-12T03:52:23.946Z,10.09
2023-01-12T03:53:23.946Z,10.22
2023-01-12T03:54:23.960Z,10.17
2023-01-12T03:55:23.923Z,10.19
2023-01-12T03:56:23.923Z,10.09
2023-01-12T03:57:23.902Z,10.25
2023-01-12T03:58:23.900Z,10.24
2023-01-12T03:59:23.906Z,10.39
2023-01-12T04:00:23.887Z,10.40
2023-01-12T04:01:23.951Z,10.40
2023-01-12T04:02:23.849Z,10.39
2023-01-12T04:03:23.844Z,10.32
2023-01-12T04:04:23.819Z,10.33
2023-01-12T04:05:23.802Z,10.42
2023-01-12T04:06:23.885Z,10.43
2023-01-12T04:07:23.788Z,10.33
2023-01-12T04:08:23.769Z,10.24
2023-01-12T04:09:23.767Z,10.33
2023-01-12T04:10:23.749Z,10.43
2023-01-12T04:11:23.732Z,10.58
2023-01-12T04:12:23.758Z,10.73
2023-01-12T04:13:23.731Z,10.66
2023-01-12T04:14:23.705Z,10.78
2023-01-12T04:15:23.694Z,10.55
2023-01-12T04:16:23.776Z,10.36
2023-01-12T04:17:23.673Z,10.32
2023-01-12T04:18:23.740Z,10.47
2023-01-12T04:19:23.693Z,10.70
2023-01-12T04:20:23.632Z,10.86
2023-01-12T04:21:23.630Z,10.80
2023-01-12T04:22:23.655Z,10.63
2023-01-12T04:23:23.626Z,10.56
2023-01-12T04:24:23.591Z,10.43
2023-01-12T04:25:23.583Z,10.53
2023-01-12T04:26:23.554Z,10.40
2023-01-12T04:27:23.551Z,10.52
2023-01-12T04:28:23.552Z,10.73
2023-01-12T04:29:23.563Z,10.68
2023-01-12T04:30:23.572Z,10.81
2023-01-12T04:31:23.566Z,10.58
2023-01-12T04:32:23.492Z,10.62
2023-01-12T04:33:23.489Z,10.68
2023-01-12T04:34:23.473Z,10.71
2023-01-12T04:35:23.493Z,10.58
2023-01-12T04:36:23.445Z,10.63
2023-01-12T04:37:23.433Z,10.62
2023-01-12T04:38:23.423Z,10.60
2023-01-12T04:39:23.442Z,10.42
2023-01-12T04:40:23.408Z,10.51
2023-01-12T04:41:23.416Z,10.53
2023-01-12T04:42:23.376Z,10.63
2023-01-12T04:43:23.385Z,10.68
2023-01-12T04:44:23.355Z,10.70
2023-01-12T04:45:23.368Z,10.65
2023-01-12T04:46:23.340Z,10.58
2023-01-12T04:47:23.354Z,10.58
2023-01-12T04:48:25.192Z,10.53
2023-01-12T04:49:23.358Z,10.58
2023-01-12T04:50:23.284Z,10.53
2023-01-12T04:51:23.316Z,10.52
2023-01-12T04:52:23.266Z,10.47
2023-01-12T04:53:23.325Z,10.58
2023-01-12T04:54:23.263Z,10.40
2023-01-12T04:55:23.262Z,10.46
2023-01-12T04:56:23.226Z,10.36
2023-01-12T04:57:23.199Z,10.43
2023-01-12T04:58:23.189Z,10.58
2023-01-12T04:59:23.198Z,10.60
2023-01-12T05:00:23.188Z,10.59
2023-01-12T05:01:23.426Z,10.63
2023-01-12T05:02:23.155Z,10.51
2023-01-12T05:03:23.136Z,10.46
2023-01-12T05:04:23.208Z,10.51
2023-01-12T05:05:23.131Z,10.59
2023-01-12T05:06:23.135Z,10.60
2023-01-12T05:07:23.092Z,10.70
2023-01-12T05:08:23.089Z,10.80
2023-01-12T05:09:23.105Z,10.80
2023-01-12T05:10:23.111Z,10.76
2023-01-12T05:11:23.037Z,10.58
2023-01-12T05:12:23.027Z,10.65
2023-01-12T05:13:23.024Z,10.70
2023-01-12T05:14:23.009Z,10.71
2023-01-12T05:15:23.030Z,10.66
2023-01-12T05:16:23.014Z,10.84
2023-01-12T05:17:22.994Z,10.68
2023-01-12T05:18:23.002Z,10.74
2023-01-12T05:19:22.952Z,10.59
2023-01-12T05:20:22.949Z,10.63
2023-01-12T05:21:22.940Z,10.43
2023-01-12T05:22:22.948Z,10.63
2023-01-12T05:23:22.941Z,10.59
2023-01-12T05:24:22.899Z,10.81
2023-01-12T05:25:22.894Z,10.51
2023-01-12T05:26:22.873Z,10.59
2023-01-12T05:27:22.880Z,10.83
2023-01-12T05:28:22.878Z,10.73
2023-01-12T05:29:22.836Z,10.63
2023-01-12T05:30:22.845Z,10.74
2023-01-12T05:31:22.819Z,10.96
2023-01-12T05:32:22.828Z,10.70
2023-01-12T05:33:22.825Z,10.66
2023-01-12T05:34:22.816Z,10.42
2023-01-12T05:35:22.831Z,10.63
2023-01-12T05:36:24.409Z,10.70
2023-01-12T05:37:22.758Z,10.63
2023-01-12T05:38:22.753Z,10.76
2023-01-12T05:39:22.735Z,10.95
2023-01-12T05:40:22.721Z,10.88
2023-01-12T05:41:22.702Z,10.76
2023-01-12T05:42:22.692Z,10.65
2023-01-12T05:43:22.676Z,10.58
2023-01-12T05:44:22.801Z,10.43
2023-01-12T05:45:22.654Z,10.56
2023-01-12T05:46:22.692Z,10.68
2023-01-12T05:47:22.627Z,10.65
2023-01-12T05:48:22.636Z,10.81
2023-01-12T05:49:22.611Z,10.81
2023-01-12T05:50:22.614Z,10.78
2023-01-12T05:51:22.612Z,10.65
2023-01-12T05:52:22.583Z,10.58
2023-01-12T05:53:22.563Z,10.73
2023-01-12T05:54:22.563Z,10.80
2023-01-12T05:55:22.535Z,10.74
2023-01-12T05:56:22.615Z,10.78
2023-01-12T05:57:22.526Z,10.89
2023-01-12T05:58:22.508Z,10.73
2023-01-12T05:59:22.508Z,10.92
2023-01-12T06:00:22.487Z,10.84
2023-01-12T06:01:22.518Z,10.84
2023-01-12T06:02:22.556Z,10.91
2023-01-12T06:03:22.453Z,10.95
2023-01-12T06:04:22.500Z,10.84
2023-01-12T06:05:22.446Z,10.80
2023-01-12T06:06:22.427Z,10.89
2023-01-12T06:07:22.405Z,10.96
2023-01-12T06:08:22.448Z,11.14
2023-01-12T06:09:22.379Z,11.01
2023-01-12T06:10:22.370Z,10.95
2023-01-12T06:11:22.358Z,10.86
2023-01-12T06:12:22.386Z,10.71
2023-01-12T06:13:22.401Z,10.91
2023-01-12T06:14:22.342Z,10.84
2023-01-12T06:15:22.311Z,10.78
2023-01-12T06:16:22.298Z,11.09
2023-01-12T06:17:22.296Z,10.96
2023-01-12T06:18:22.295Z,10.99
2023-01-12T06:19:22.301Z,10.92
2023-01-12T06:20:22.259Z,11.01
2023-01-12T06:21:22.239Z,10.89
2023-01-12T06:22:22.228Z,10.91
2023-01-12T06:23:22.252Z,10.96
2023-01-12T06:24:23.270Z,10.84
2023-01-12T06:25:22.224Z,10.91
2023-01-12T06:26:22.185Z,10.86
2023-01-12T06:27:22.249Z,10.88
2023-01-12T06:28:22.188Z,10.70
2023-01-12T06:29:22.230Z,10.78
2023-01-12T06:30:22.238Z,10.56
2023-01-12T06:31:22.198Z,10.73
2023-01-12T06:32:22.126Z,10.60
2023-01-12T06:33:22.110Z,10.76
2023-01-12T06:34:22.108Z,10.76
2023-01-12T06:35:22.100Z,10.66
2023-01-12T06:36:22.080Z,10.71
2023-01-12T06:37:22.093Z,10.37
2023-01-12T06:38:22.060Z,10.63
2023-01-12T06:39:22.040Z,10.73
2023-01-12T06:40:22.041Z,10.34
2023-01-12T06:41:22.040Z,10.28
2023-01-12T06:42:22.000Z,10.34
2023-01-12T06:43:22.016Z,10.42
2023-01-12T06:44:21.984Z,10.44
2023-01-12T06:45:21.996Z,10.42
2023-01-12T06:46:21.970Z,10.37
2023-01-12T06:47:21.975Z,10.47
2023-01-12T06:48:21.953Z,10.33
2023-01-12T06:49:21.920Z,10.43
2023-01-12T06:50:21.923Z,10.36
2023-01-12T06:51:21.902Z,10.21
2023-01-12T06:52:21.899Z,10.26
2023-01-12T06:53:21.873Z,10.42
2023-01-12T06:54:21.963Z,10.36
2023-01-12T06:55:21.879Z,10.46
2023-01-12T06:56:21.866Z,10.55
2023-01-12T06:57:21.861Z,10.53
2023-01-12T06:58:21.832Z,10.51
2023-01-12T06:59:21.805Z,10.30
2023-01-12T07:00:21.858Z,10.40
2023-01-12T07:01:21.868Z,10.47
2023-01-12T07:02:21.778Z,10.56
2023-01-12T07:03:21.809Z,10.44
2023-01-12T07:04:21.777Z,10.65
2023-01-12T07:05:21.746Z,10.70
2023-01-12T07:06:21.787Z,10.37
2023-01-12T07:07:21.725Z,10.28
2023-01-12T07:08:21.705Z,10.42
2023-01-12T07:09:21.764Z,10.43
2023-01-12T07:10:21.692Z,10.30
2023-01-12T07:11:21.706Z,10.53
2023-01-12T07:12:21.709Z,10.25
2023-01-12T07:13:21.653Z,10.36
2023-01-12T07:14:21.658Z,10.43
2023-01-12T07:15:21.641Z,10.56
2023-01-12T07:16:21.643Z,10.47
2023-01-12T07:17:21.723Z,10.34
2023-01-12T07:18:21.618Z,10.43
2023-01-12T07:19:21.587Z,10.52
2023-01-12T07:20:21.558Z,10.47
2023-01-12T07:21:21.560Z,10.39
2023-01-12T07:22:21.547Z,10.39
2023-01-12T07:23:21.578Z,10.44
2023-01-12T07:24:21.541Z,10.25
2023-01-12T07:25:21.518Z,10.22
2023-01-12T07:26:21.490Z,10.46
2023-01-12T07:27:21.491Z,10.33
2023-01-12T07:28:21.478Z,10.42
2023-01-12T07:29:21.520Z,10.51
2023-01-12T07:30:21.480Z,10.44
2023-01-12T07:31:21.484Z,10.30
2023-01-12T07:32:21.431Z,10.28
2023-01-12T07:33:21.427Z,10.26
2023-01-12T07:34:21.417Z,10.51
2023-01-12T07:35:21.628Z,10.59
2023-01-12T07:36:21.388Z,10.62
2023-01-12T07:37:21.400Z,10.52
2023-01-12T07:38:21.362Z,10.53
2023-01-12T07:39:21.349Z,10.44
2023-01-12T07:40:21.367Z,10.46
2023-01-12T07:41:21.356Z,10.58
2023-01-12T07:42:21.317Z,10.60
2023-01-12T07:43:21.325Z,10.46
2023-01-12T07:44:21.309Z,10.34
2023-01-12T07:45:21.280Z,10.47
2023-01-12T07:46:21.400Z,10.44
2023-01-12T07:47:21.278Z,10.56
2023-01-12T07:48:21.256Z,10.46
2023-01-12T07:49:21.245Z,10.39
2023-01-12T07:50:21.236Z,10.46
2023-01-12T07:51:21.251Z,10.46
2023-01-12T07:52:21.317Z,10.51
2023-01-12T07:53:21.217Z,10.42
2023-01-12T07:54:21.181Z,10.62
2023-01-12T07:55:21.214Z,10.58
2023-01-12T07:56:21.173Z,10.51
2023-01-12T07:57:21.215Z,10.37
2023-01-12T07:58:21.201Z,10.46
2023-01-12T07:59:21.171Z,10.47
2023-01-12T08:00:21.112Z,10.52
2023-01-12T08:01:21.198Z,10.68
2023-01-12T08:02:21.211Z,10.37
2023-01-12T08:03:21.073Z,10.33
2023-01-12T08:04:21.100Z,10.15
2023-01-12T08:05:21.063Z,10.36
2023-01-12T08:06:21.059Z,10.46
2023-01-12T08:07:21.033Z,10.53
2023-01-12T08:08:21.022Z,10.59
2023-01-12T08:09:21.048Z,10.60
2023-01-12T08:10:21.007Z,10.55
2023-01-12T08:11:20.983Z,10.51
2023-01-12T08:12:20.973Z,10.37
2023-01-12T08:13:20.991Z,10.52
2023-01-12T08:14:20.955Z,10.73
2023-01-12T08:15:20.978Z,10.71
2023-01-12T08:16:21.057Z,10.60
2023-01-12T08:17:21.000Z,10.46
2023-01-12T08:18:20.905Z,10.47
2023-01-12T08:19:20.897Z,10.55
2023-01-12T08:20:20.904Z,10.52
2023-01-12T08:21:20.876Z,10.46
2023-01-12T08:22:21.118Z,10.43
2023-01-12T08:23:20.873Z,10.63
2023-01-12T08:24:20.836Z,10.78
2023-01-12T08:25:20.827Z,10.84
2023-01-12T08:26:20.835Z,10.73
2023-01-12T08:27:20.825Z,10.74
2023-01-12T08:28:20.800Z,10.71
2023-01-12T08:29:20.902Z,10.59
2023-01-12T08:30:20.773Z,10.53
2023-01-12T08:31:20.824Z,10.51
2023-01-12T08:32:20.766Z,10.62
2023-01-12T08:33:20.740Z,10.47
2023-01-12T08:34:20.717Z,10.19
2023-01-12T08:35:20.697Z,10.56
2023-01-12T08:36:20.752Z,10.44
2023-01-12T08:37:20.744Z,10.47
2023-01-12T08:38:20.706Z,10.52
2023-01-12T08:39:20.686Z,10.52
2023-01-12T08:40:20.659Z,10.55
2023-01-12T08:41:20.637Z,10.70
2023-01-12T08:42:20.670Z,10.59
2023-01-12T08:43:20.688Z,10.65
2023-01-12T08:44:20.611Z,10.77
2023-01-12T08:45:20.617Z,10.44
2023-01-12T08:46:20.668Z,10.32
2023-01-12T08:47:20.643Z,10.32
2023-01-12T08:48:20.702Z,10.32
2023-01-12T08:49:21.129Z,10.40
2023-01-12T08:50:20.555Z,10.30
2023-01-12T08:51:20.528Z,10.52
2023-01-12T08:52:20.511Z,10.43
2023-01-12T08:53:20.519Z,10.51
2023-01-12T08:54:20.552Z,10.43
2023-01-12T08:55:20.510Z,10.51
2023-01-12T08:56:20.484Z,10.51
2023-01-12T08:57:20.471Z,10.26
2023-01-12T08:58:20.450Z,10.32
2023-01-12T08:59:20.550Z,10.59
2023-01-12T09:00:20.441Z,10.44
2023-01-12T09:01:20.571Z,10.65
2023-01-12T09:02:20.433Z,10.52
2023-01-12T09:03:20.388Z,10.55
2023-01-12T09:04:20.381Z,10.60
2023-01-12T09:05:20.371Z,10.53
2023-01-12T09:06:20.381Z,10.46
2023-01-12T09:07:20.361Z,10.53
2023-01-12T09:08:20.355Z,10.51
2023-01-12T09:09:20.330Z,10.51
2023-01-12T09:10:20.315Z,10.52
2023-01-12T09:11:20.303Z,10.71
2023-01-12T09:12:20.321Z,10.32
2023-01-12T09:13:20.272Z,10.68
2023-01-12T09:14:20.262Z,10.86
2023-01-12T09:15:20.264Z,10.63
2023-01-12T09:16:20.325Z,10.66
2023-01-12T09:17:20.267Z,10.71
2023-01-12T09:18:20.430Z,10.59
2023-01-12T09:19:20.216Z,10.56
2023-01-12T09:20:20.192Z,10.80
2023-01-12T09:21:20.219Z,10.84
2023-01-12T09:22:20.214Z,10.80
2023-01-12T09:23:20.162Z,10.92
2023-01-12T09:24:20.203Z,10.73
2023-01-12T09:25:20.140Z,10.56
2023-01-12T09:26:20.138Z,10.80
2023-01-12T09:27:20.139Z,10.60
2023-01-12T09:28:20.112Z,10.71
2023-01-12T09:29:20.142Z,10.68
2023-01-12T09:30:20.143Z,10.76
2023-01-12T09:31:20.117Z,10.84
2023-01-12T09:32:22.962Z,10.77
2023-01-12T09:33:22.885Z,10.71
2023-01-12T09:34:20.049Z,10.76
2023-01-12T09:35:20.076Z,10.58
2023-01-12T09:36:20.005Z,10.70
2023-01-12T09:37:20.026Z,10.60
2023-01-12T09:38:19.994Z,10.62
2023-01-12T09:39:27.349Z,10.71
2023-01-12T09:40:20.994Z,10.86
2023-01-12T09:41:20.046Z,10.91
2023-01-12T09:42:19.939Z,10.76
2023-01-12T09:43:19.930Z,10.81
2023-01-12T09:44:19.947Z,10.80
2023-01-12T09:45:19.927Z,10.76
2023-01-12T09:46:19.899Z,10.88
2023-01-12T09:47:19.970Z,10.77
2023-01-12T09:48:19.901Z,10.59
2023-01-12T09:49:19.867Z,10.53
2023-01-12T09:50:19.868Z,10.65
2023-01-12T09:51:19.845Z,10.80
2023-01-12T09:52:19.829Z,10.83
2023-01-12T09:53:19.887Z,11.06
2023-01-12T09:54:19.900Z,10.86
2023-01-12T09:55:19.799Z,10.76
2023-01-12T09:56:19.829Z,10.81
2023-01-12T09:57:28.921Z,10.84
2023-01-12T09:58:20.833Z,10.68
2023-01-12T09:59:19.749Z,10.66
2023-01-12T10:00:19.785Z,10.70
2023-01-12T10:01:28.865Z,10.80
2023-01-12T10:02:20.926Z,10.92
2023-01-12T10:03:20.957Z,11.02
2023-01-12T10:04:19.691Z,10.86
2023-01-12T10:05:19.691Z,11.09
2023-01-12T10:06:19.694Z,10.98
2023-01-12T10:07:19.682Z,11.02
2023-01-12T10:08:19.661Z,10.98
2023-01-12T10:09:19.670Z,10.84
2023-01-12T10:10:19.621Z,10.91
2023-01-12T10:11:19.620Z,11.02
2023-01-12T10:12:19.603Z,10.74
2023-01-12T10:13:19.612Z,10.94
2023-01-12T10:14:19.600Z,10.89
2023-01-12T10:15:19.627Z,10.78
2023-01-12T10:16:19.599Z,10.89
2023-01-12T10:17:19.573Z,10.96
2023-01-12T10:18:19.524Z,10.70
2023-01-12T10:19:20.074Z,11.02
2023-01-12T10:20:19.520Z,10.96
2023-01-12T10:21:19.513Z,10.95
2023-01-12T10:22:19.510Z,10.88
2023-01-12T10:23:19.488Z,10.99
2023-01-12T10:24:19.473Z,11.14
2023-01-12T10:25:19.442Z,11.10
2023-01-12T10:26:19.481Z,11.01
2023-01-12T10:27:19.484Z,11.17
2023-01-12T10:28:19.413Z,11.29
2023-01-12T10:29:19.396Z,11.25
2023-01-12T10:30:19.435Z,11.32
2023-01-12T10:31:19.388Z,11.07
2023-01-12T10:32:21.295Z,10.80
2023-01-12T10:33:19.385Z,10.80
2023-01-12T10:34:19.344Z,10.91
2023-01-12T10:35:19.346Z,11.13
2023-01-12T10:36:19.317Z,11.16
2023-01-12T10:37:19.326Z,11.13
2023-01-12T10:38:19.382Z,10.96
2023-01-12T10:39:19.298Z,11.07
2023-01-12T10:40:19.265Z,11.10
2023-01-12T10:41:19.259Z,11.16
2023-01-12T10:42:19.256Z,11.20
2023-01-12T10:43:20.229Z,11.10
2023-01-12T10:44:19.254Z,11.25
2023-01-12T10:45:19.225Z,11.39
2023-01-12T10:46:19.256Z,11.39
2023-01-12T10:47:19.197Z,11.14
2023-01-12T10:48:19.188Z,11.19
2023-01-12T10:49:19.183Z,11.25
2023-01-12T10:50:19.367Z,11.39
2023-01-12T10:51:19.185Z,11.39
2023-01-12T10:52:19.153Z,11.21
2023-01-12T10:53:19.127Z,11.24
2023-01-12T10:54:19.135Z,11.46
2023-01-12T10:55:19.134Z,11.20
2023-01-12T10:56:19.103Z,11.20
2023-01-12T10:57:19.111Z,11.14
2023-01-12T10:58:19.229Z,11.20
2023-01-12T10:59:19.049Z,11.29
2023-01-12T11:00:19.038Z,11.29
2023-01-12T11:01:19.142Z,11.43
2023-01-12T11:02:19.213Z,11.24
2023-01-12T11:03:19.036Z,11.27
2023-01-12T11:04:19.012Z,11.21
2023-01-12T11:05:19.019Z,11.19
2023-01-12T11:06:19.032Z,11.19
2023-01-12T11:07:18.954Z,11.10
2023-01-12T11:08:18.961Z,11.19
2023-01-12T11:09:18.941Z,10.96
2023-01-12T11:10:19.344Z,11.16
2023-01-12T11:11:18.901Z,11.19
2023-01-12T11:12:18.953Z,11.35
2023-01-12T11:13:18.901Z,11.17
2023-01-12T11:14:22.667Z,11.36
2023-01-12T11:15:19.873Z,11.43
2023-01-12T11:16:18.968Z,11.35
2023-01-12T11:17:18.927Z,11.25
2023-01-12T11:18:18.946Z,11.13
2023-01-12T11:19:18.857Z,11.19
2023-01-12T11:20:18.884Z,11.24
2023-01-12T11:21:18.793Z,11.35
2023-01-12T11:22:18.790Z,11.35
2023-01-12T11:23:19.049Z,11.32
2023-01-12T11:24:18.791Z,11.21
2023-01-12T11:25:18.765Z,11.34
2023-01-12T11:26:18.750Z,11.29
2023-01-12T11:27:18.741Z,11.29
2023-01-12T11:28:18.747Z,11.28
2023-01-12T11:29:18.811Z,11.02
2023-01-12T11:30:18.720Z,11.07
2023-01-12T11:31:18.746Z,10.99
2023-01-12T11:32:18.702Z,11.03
2023-01-12T11:33:18.687Z,11.19
2023-01-12T11:34:18.683Z,11.06
2023-01-12T11:35:18.701Z,11.19
2023-01-12T11:36:18.655Z,11.14
2023-01-12T11:37:18.678Z,11.41
2023-01-12T11:38:18.687Z,11.41
2023-01-12T11:39:18.650Z,11.49
2023-01-12T11:40:19.356Z,11.19
2023-01-12T11:41:19.247Z,11.19
2023-01-12T11:42:18.688Z,11.21
2023-01-12T11:43:18.641Z,11.41
2023-01-12T11:44:18.584Z,11.56
2023-01-12T11:45:18.529Z,11.35
2023-01-12T11:46:19.280Z,11.09
2023-01-12T11:47:18.545Z,11.19
2023-01-12T11:48:18.494Z,11.25
2023-01-12T11:49:18.487Z,11.29
2023-01-12T11:50:18.472Z,11.19
2023-01-12T11:51:18.467Z,11.06
2023-01-12T11:52:18.489Z,11.24
2023-01-12T11:53:18.488Z,11.14
2023-01-12T11:54:18.453Z,11.07
2023-01-12T11:55:18.435Z,11.10
2023-01-12T11:56:18.401Z,11.34
2023-01-12T11:57:18.424Z,11.52
2023-01-12T11:58:18.386Z,11.50
2023-01-12T11:59:18.365Z,11.57
2023-01-12T12:00:18.430Z,11.35
2023-01-12T12:01:18.385Z,11.19
2023-01-12T12:02:18.404Z,11.31
2023-01-12T12:03:18.374Z,11.54
2023-01-12T12:04:18.320Z,11.57
2023-01-12T12:05:18.303Z,11.43
2023-01-12T12:06:18.343Z,11.43
2023-01-12T12:07:18.262Z,11.56
2023-01-12T12:08:18.252Z,11.70
2023-01-12T12:09:18.275Z,11.67
2023-01-12T12:10:18.266Z,11.52
2023-01-12T12:11:18.235Z,11.64
2023-01-12T12:12:18.209Z,11.68
2023-01-12T12:13:18.190Z,11.56
2023-01-12T12:14:18.182Z,11.44
2023-01-12T12:15:18.190Z,11.34
2023-01-12T12:16:18.249Z,11.46
2023-01-12T12:17:18.150Z,11.61
2023-01-12T12:18:18.149Z,11.68
2023-01-12T12:19:18.132Z,11.57
2023-01-12T12:20:18.164Z,11.52
2023-01-12T12:21:18.149Z,11.54
2023-01-12T12:22:18.105Z,11.52
2023-01-12T12:23:18.099Z,11.80
2023-01-12T12:24:18.086Z,11.72
2023-01-12T12:25:18.049Z,11.56
2023-01-12T12:26:18.051Z,11.49
2023-01-12T12:27:18.076Z,11.56
2023-01-12T12:28:18.012Z,11.61
2023-01-12T12:29:18.009Z,11.80
2023-01-12T12:30:18.034Z,11.68
2023-01-12T12:31:18.006Z,11.67
2023-01-12T12:32:18.037Z,11.38
2023-01-12T12:33:17.954Z,11.67
2023-01-12T12:34:17.943Z,11.68
2023-01-12T12:35:17.940Z,11.54
2023-01-12T12:36:17.930Z,11.70
2023-01-12T12:37:17.917Z,11.77
2023-01-12T12:38:19.133Z,11.54
2023-01-12T12:39:17.934Z,11.75
2023-01-12T12:40:17.897Z,11.82
2023-01-12T12:41:17.862Z,11.83
2023-01-12T12:42:17.855Z,11.52
2023-01-12T12:43:17.846Z,11.62
2023-01-12T12:44:17.866Z,11.64
2023-01-12T12:45:17.854Z,11.67
2023-01-12T12:46:17.872Z,11.57
2023-01-12T12:47:17.800Z,11.50
2023-01-12T12:48:17.793Z,11.82
2023-01-12T12:49:17.822Z,11.72
2023-01-12T12:50:17.814Z,11.65
2023-01-12T12:51:17.733Z,11.94
2023-01-12T12:52:17.756Z,11.71
2023-01-12T12:53:17.726Z,11.67
2023-01-12T12:54:17.712Z,11.62
2023-01-12T12:55:17.763Z,11.72
2023-01-12T12:56:17.740Z,12.02
2023-01-12T12:57:17.691Z,11.67